Time;durP1;ratioP1;P1;durP2;ratioP2;P2;SDS_P1;SDS_P2;PMS_P1;PMS_P2;Temp;Humidity;BMP_temperature;BMP_pressure;BME280_temperature;BME280_humidity;BME280_pressure;Samples;Min_cycle;Max_cycle;Signal;HPM_P1;HPM_P2
2022/11/14 00:02:22;;;;;;;74.80;34.75;;;;;;;7.19;84.84;102031.70;1703169;83;20922;-84
2022/11/14 00:05:09;;;;;;;69.20;34.55;;;;;;;7.20;84.86;102024.86;1695717;83;21586;-84
2022/11/14 00:07:53;;;;;;;79.30;36.05;;;;;;;7.22;84.90;102021.48;1701794;83;20861;-84
2022/11/14 00:10:38;;;;;;;78.83;37.53;;;;;;;7.22;84.83;102022.77;1686251;83;21019;-84
2022/11/14 00:13:23;;;;;;;72.47;34.15;;;;;;;7.21;84.82;102022.31;1701948;83;20940;-84
2022/11/14 00:16:08;;;;;;;75.40;34.67;;;;;;;7.21;84.87;102028.74;1688650;83;21027;-84
2022/11/14 00:18:53;;;;;;;80.38;36.13;;;;;;;7.23;84.87;102024.50;1695964;83;20972;-84
2022/11/14 00:21:38;;;;;;;71.50;34.08;;;;;;;7.24;84.88;102019.80;1687153;83;20908;-83
2022/11/14 00:24:23;;;;;;;73.65;35.38;;;;;;;7.28;84.90;102020.28;1690029;83;20880;-83
2022/11/14 00:27:08;;;;;;;73.15;34.25;;;;;;;7.30;84.87;102013.88;1691327;84;20908;-83
2022/11/14 00:29:53;;;;;;;72.65;34.85;;;;;;;7.31;84.92;102010.05;1683669;84;21310;-83
2022/11/14 00:32:37;;;;;;;79.72;36.75;;;;;;;7.30;84.83;102010.02;1688019;84;20940;-84
2022/11/14 00:35:22;;;;;;;80.28;35.13;;;;;;;7.30;84.82;102006.16;1655722;84;21506;-84
2022/11/14 00:38:07;;;;;;;82.40;35.70;;;;;;;7.28;84.77;102006.55;1663878;85;21328;-84
2022/11/14 00:40:52;;;;;;;78.95;35.20;;;;;;;7.23;84.78;102003.05;1641826;86;21475;-84
2022/11/14 00:43:37;;;;;;;83.37;35.13;;;;;;;7.24;84.90;102006.94;1646733;86;20966;-83
2022/11/14 00:46:22;;;;;;;79.32;36.08;;;;;;;7.27;84.94;101996.70;1640682;85;20923;-83
2022/11/14 00:49:08;;;;;;;74.97;34.38;;;;;;;7.28;84.87;101993.69;1632435;86;21776;-83
2022/11/14 00:51:52;;;;;;;91.22;37.53;;;;;;;7.26;84.86;101989.83;1689430;84;21035;-83
2022/11/14 00:54:37;;;;;;;87.40;37.48;;;;;;;7.25;84.89;101985.52;1687197;84;21083;-83
2022/11/14 00:57:23;;;;;;;89.32;37.42;;;;;;;7.28;84.92;101980.82;1693450;83;21091;-83
2022/11/14 01:00:09;;;;;;;83.97;36.70;;;;;;;7.28;84.87;101976.55;1697458;83;21048;-83
2022/11/14 01:02:57;;;;;;;93.47;36.95;;;;;;;7.26;84.90;101973.11;1669554;82;20897;-83
2022/11/14 01:05:45;;;;;;;;;;;;;;;7.25;84.91;101973.94;1685924;84;20893;-84
2022/11/14 01:08:29;;;;;;;93.52;37.85;;;;;;;7.25;84.96;101967.52;1680311;84;20474;-84
2022/11/14 01:11:20;;;;;;;86.37;38.50;;;;;;;7.26;84.97;101966.67;1681270;83;21313;-84
2022/11/14 01:14:07;;;;;;;79.90;36.55;;;;;;;7.25;84.94;101962.37;1674893;83;20929;-84
2022/11/14 01:16:51;;;;;;;92.05;39.30;;;;;;;7.21;84.91;101959.28;1619890;86;20994;-84
2022/11/14 01:19:36;;;;;;;89.87;37.17;;;;;;;7.20;84.93;101954.11;1654873;86;21360;-84
2022/11/14 01:22:21;;;;;;;82.55;35.52;;;;;;;7.18;84.97;101951.92;1647878;86;21752;-84
2022/11/14 01:25:07;;;;;;;87.55;38.45;;;;;;;7.19;85.01;101948.52;1642737;85;20966;-84
2022/11/14 01:27:52;;;;;;;82.05;36.25;;;;;;;7.21;85.00;101948.99;1638168;86;21505;-84
2022/11/14 01:30:38;;;;;;;92.75;38.15;;;;;;;7.19;84.95;101943.38;1642342;85;20961;-84
2022/11/14 01:33:23;;;;;;;88.55;37.73;;;;;;;7.20;84.99;101951.54;1631229;86;20937;-84
2022/11/14 01:36:09;;;;;;;94.07;36.75;;;;;;;7.19;85.01;101942.09;1620929;84;21332;-84
2022/11/14 01:38:54;;;;;;;83.75;36.42;;;;;;;7.19;85.02;101939.09;1619580;86;20917;-83
2022/11/14 01:41:39;;;;;;;94.62;38.85;;;;;;;7.21;85.05;101935.27;1608307;84;21914;-83
2022/11/14 01:44:52;;;;;;;81.30;35.88;;;;;;;7.19;84.97;101933.08;1680192;84;21387;-83
2022/11/14 01:47:38;;;;;;;89.40;36.75;;;;;;;7.20;85.05;101920.67;1681941;84;21522;-83
2022/11/14 01:50:23;;;;;;;87.75;38.02;;;;;;;7.19;85.04;101913.80;1692168;84;21009;-83
2022/11/14 01:53:08;;;;;;;90.35;38.05;;;;;;;7.18;85.01;101913.34;1685820;83;21775;-83
2022/11/14 01:55:57;;;;;;;83.95;35.70;;;;;;;7.17;85.05;101911.19;1688110;84;20895;-83
2022/11/14 01:58:47;;;;;;;84.40;35.45;;;;;;;7.17;85.05;101908.62;1686745;83;20976;-83
2022/11/14 02:01:37;;;;;;;90.17;36.38;;;;;;;7.18;85.11;101910.77;1618953;85;20913;-83
2022/11/14 02:04:30;;;;;;;88.35;36.40;;;;;;;7.19;85.10;101903.08;1678509;83;20903;-83
2022/11/14 02:07:17;;;;;;;93.47;38.42;;;;;;;7.19;85.04;101899.22;1677889;84;21013;-83
2022/11/14 02:10:07;;;;;;;87.47;38.13;;;;;;;7.17;85.12;101894.89;1682713;81;20962;-83
2022/11/14 02:12:52;;;;;;;80.17;36.55;;;;;;;7.16;85.06;101894.44;1681376;83;20947;-83
2022/11/14 02:15:38;;;;;;;83.40;36.48;;;;;;;7.15;85.08;101888.43;1671979;82;20926;-83
2022/11/14 02:18:23;;;;;;;87.30;36.35;;;;;;;7.14;85.09;101881.55;1661076;85;20938;-83
2022/11/14 02:21:08;;;;;;;89.62;36.05;;;;;;;7.14;85.06;101881.55;1657329;85;21256;-84
2022/11/14 02:23:53;;;;;;;86.92;37.08;;;;;;;7.15;85.13;101879.84;1655375;85;20998;-83
2022/11/14 02:26:39;;;;;;;87.02;37.55;;;;;;;7.16;85.15;101889.30;1658240;85;20951;-83
2022/11/14 02:29:24;;;;;;;;;;;;;;;7.14;85.08;101877.69;1654724;85;21351;-83
2022/11/14 02:32:09;;;;;;;85.32;36.08;;;;;;;7.15;85.16;101873.41;1645773;85;20585;-83
2022/11/14 02:34:53;;;;;;;83.80;36.45;;;;;;;7.13;85.17;101870.81;1655949;85;20922;-83
2022/11/14 02:37:39;;;;;;;85.10;36.93;;;;;;;7.16;85.18;101871.30;1662494;85;20974;-83
2022/11/14 02:40:24;;;;;;;77.87;37.70;;;;;;;7.14;85.17;101872.55;1659757;85;20978;-83
2022/11/14 02:43:09;;;;;;;89.60;39.08;;;;;;;7.13;85.13;101866.09;1654327;85;20926;-83
2022/11/14 02:45:54;;;;;;;80.85;37.98;;;;;;;7.13;85.17;101864.80;1659086;85;20930;-83
2022/11/14 02:48:39;;;;;;;81.92;37.15;;;;;;;7.13;85.21;101859.24;1666192;85;20914;-83
2022/11/14 02:51:24;;;;;;;84.58;38.15;;;;;;;7.14;85.23;101857.53;1654770;85;21031;-83
2022/11/14 02:54:09;;;;;;;82.62;36.58;;;;;;;7.14;85.22;101858.41;1666150;85;20921;-83
2022/11/14 02:56:54;;;;;;;85.55;37.83;;;;;;;7.12;85.19;101857.51;1612973;86;21462;-83
2022/11/14 02:59:39;;;;;;;88.55;39.18;;;;;;;7.11;85.21;101849.34;1664512;85;20910;-83
2022/11/14 03:02:24;;;;;;;92.82;38.73;;;;;;;7.11;85.24;101843.33;1676111;83;21475;-83
2022/11/14 03:05:09;;;;;;;82.65;38.80;;;;;;;7.11;85.28;101843.33;1667930;85;20930;-83
2022/11/14 03:07:55;;;;;;;83.65;38.73;;;;;;;7.08;85.33;101844.14;1660235;85;20961;-83
2022/11/14 03:10:40;;;;;;;83.75;38.70;;;;;;;7.09;85.29;101838.16;1672656;84;21065;-83
2022/11/14 03:13:29;;;;;;;94.95;40.30;;;;;;;7.10;85.33;101833.88;1679803;84;21038;-83
2022/11/14 03:16:14;;;;;;;84.70;38.50;;;;;;;7.10;85.35;101836.45;1680287;83;21047;-84
2022/11/14 03:18:59;;;;;;;86.67;39.13;;;;;;;7.07;85.29;101829.97;1688277;83;21042;-84
2022/11/14 03:21:44;;;;;;;92.37;40.35;;;;;;;7.04;85.38;101832.07;1699180;83;20992;-84
2022/11/14 03:24:29;;;;;;;85.25;39.75;;;;;;;7.02;85.33;101824.75;1706973;82;21093;-84
2022/11/14 03:27:14;;;;;;;91.57;40.75;;;;;;;7.00;85.33;101821.28;1697635;82;21497;-83
2022/11/14 03:29:59;;;;;;;87.42;38.50;;;;;;;7.01;85.38;101836.29;1711623;83;21098;-84
2022/11/14 03:32:44;;;;;;;89.40;39.78;;;;;;;7.00;85.36;101820.41;1703148;83;21094;-83
2022/11/14 03:35:29;;;;;;;91.63;40.40;;;;;;;7.00;85.42;101822.98;1703870;83;21563;-84
2022/11/14 03:38:14;;;;;;;87.57;40.15;;;;;;;7.01;85.48;101823.44;1700965;81;21081;-83
2022/11/14 03:41:00;;;;;;;93.42;39.95;;;;;;;7.01;85.42;101819.16;1705464;83;21070;-84
2022/11/14 03:43:45;;;;;;;96.27;40.27;;;;;;;7.00;85.42;101811.41;1711267;83;21623;-84
2022/11/14 03:46:30;;;;;;;93.85;39.70;;;;;;;7.00;85.42;101811.41;1692303;83;21030;-83
2022/11/14 03:49:15;;;;;;;89.60;39.40;;;;;;;6.98;85.41;101810.10;1701247;83;21055;-84
2022/11/14 03:52:00;;;;;;;89.60;39.85;;;;;;;7.00;85.52;101811.41;1706639;83;21502;-83
2022/11/14 03:54:45;;;;;;;92.78;39.33;;;;;;;6.98;85.46;101803.67;1704613;82;20951;-83
2022/11/14 03:57:30;;;;;;;83.30;37.83;;;;;;;7.01;85.48;101801.16;1709830;83;21047;-83
2022/11/14 04:00:16;;;;;;;96.17;41.40;;;;;;;7.04;85.48;101801.62;1703742;83;21626;-83
2022/11/14 04:03:01;;;;;;;90.85;38.70;;;;;;;7.06;85.50;101796.09;1703050;83;20921;-84
2022/11/14 04:05:46;;;;;;;103.55;41.05;;;;;;;7.08;85.47;101787.56;1701239;83;21567;-84
2022/11/14 04:08:31;;;;;;;92.60;39.58;;;;;;;7.09;85.46;101793.16;1706712;83;21018;-84
2022/11/14 04:11:17;;;;;;;92.92;40.20;;;;;;;7.10;85.43;101794.89;1705041;83;21027;-84
2022/11/14 04:14:01;;;;;;;89.52;38.48;;;;;;;7.11;85.47;101795.75;1714152;83;21575;-84
2022/11/14 04:16:46;;;;;;;87.22;37.03;;;;;;;7.11;85.49;101802.19;1673269;83;21080;-84
2022/11/14 04:19:31;;;;;;;82.02;37.28;;;;;;;7.09;85.50;101800.00;1635609;85;21472;-84
2022/11/14 04:22:16;;;;;;;86.30;39.38;;;;;;;7.07;85.44;101808.11;1660474;84;21152;-83
2022/11/14 04:25:01;;;;;;;90.00;39.73;;;;;;;7.04;85.46;101797.34;1674005;83;21152;-83
2022/11/14 04:27:46;;;;;;;91.42;39.83;;;;;;;7.01;85.48;101797.72;1669353;84;21057;-83
2022/11/14 04:30:32;;;;;;;80.28;38.02;;;;;;;7.01;85.48;101808.00;1675609;85;21081;-83
2022/11/14 04:33:17;;;;;;;88.37;39.58;;;;;;;7.00;85.52;101799.42;1675575;85;21105;-83
2022/11/14 04:36:02;;;;;;;86.85;37.38;;;;;;;7.00;85.54;101791.70;1682047;82;21573;-83
2022/11/14 04:38:47;;;;;;;85.83;38.48;;;;;;;7.02;85.59;101792.60;1661656;85;21505;-83
2022/11/14 04:41:32;;;;;;;93.95;39.95;;;;;;;7.04;85.54;101789.64;1621424;84;21105;-83
2022/11/14 04:44:17;;;;;;;88.80;39.10;;;;;;;7.03;85.52;101779.33;1554533;83;5001610;-84
2022/11/14 04:47:02;;;;;;;91.72;39.83;;;;;;;7.04;85.58;101777.20;1669422;84;21141;-84
2022/11/14 04:49:47;;;;;;;90.57;39.23;;;;;;;7.05;85.59;101775.07;1667626;83;21517;-84
2022/11/14 04:52:31;;;;;;;93.60;42.95;;;;;;;7.04;85.53;101769.06;1661607;83;21101;-85
2022/11/14 04:55:17;;;;;;;95.97;42.90;;;;;;;7.03;85.49;101769.91;1629257;84;20962;-84
2022/11/14 04:58:01;;;;;;;105.07;45.33;;;;;;;7.01;85.55;101772.00;1679391;83;21175;-84
2022/11/14 05:00:47;;;;;;;91.97;44.18;;;;;;;6.98;85.53;101769.83;1678353;83;21081;-85
2022/11/14 05:03:32;;;;;;;103.15;42.30;;;;;;;6.95;85.51;101769.77;1673566;83;21104;-84
2022/11/14 05:06:17;;;;;;;91.57;41.18;;;;;;;6.96;85.59;101765.49;1668838;84;21120;-84
2022/11/14 05:09:03;;;;;;;103.45;45.73;;;;;;;6.96;85.60;101762.50;1676436;83;21037;-84
2022/11/14 05:11:47;;;;;;;98.42;41.83;;;;;;;6.97;85.63;101762.08;1672666;83;21152;-76
2022/11/14 05:14:33;;;;;;;96.78;44.40;;;;;;;7.00;85.64;101754.84;1668464;83;22063;-76
2022/11/14 05:17:18;;;;;;;94.92;43.25;;;;;;;7.01;85.66;101746.28;1678860;84;21066;-76
2022/11/14 05:20:04;;;;;;;96.65;41.10;;;;;;;7.02;85.63;101744.16;1693155;82;21095;-76
2022/11/14 05:22:55;;;;;;;94.90;42.67;;;;;;;7.02;85.63;101742.45;1699040;82;21503;-77
2022/11/14 05:25:40;;;;;;;102.47;41.98;;;;;;;7.01;85.64;101736.86;1688486;82;21502;-77
2022/11/14 05:28:25;;;;;;;94.75;42.88;;;;;;;7.01;85.58;101742.43;1689571;82;21115;-77
2022/11/14 05:31:16;;;;;;;105.72;43.65;;;;;;;6.94;85.54;101746.19;1688855;83;21078;-77
2022/11/14 05:34:00;;;;;;;99.30;44.42;;;;;;;6.89;85.54;101745.66;1691489;82;21094;-77
2022/11/14 05:36:45;;;;;;;96.25;43.15;;;;;;;6.84;85.63;101752.00;1652422;83;21132;-76
2022/11/14 05:39:30;;;;;;;97.33;43.33;;;;;;;6.82;85.72;101752.81;1680754;81;21103;-76
2022/11/14 05:42:15;;;;;;;99.37;44.33;;;;;;;6.80;85.69;101754.08;1681117;82;21535;-76
2022/11/14 05:45:00;;;;;;;102.55;42.75;;;;;;;6.78;85.70;101749.74;1694454;82;21121;-76
2022/11/14 05:47:45;;;;;;;93.67;42.35;;;;;;;6.75;85.69;101750.59;1688948;82;21070;-76
2022/11/14 05:50:30;;;;;;;101.45;43.38;;;;;;;6.75;85.74;101746.73;1693986;82;21796;-76
2022/11/14 05:53:15;;;;;;;92.25;42.73;;;;;;;6.74;85.75;101750.56;1693787;81;21102;-76
2022/11/14 05:56:03;;;;;;;94.13;43.63;;;;;;;6.74;85.77;101748.86;1691239;82;21698;-76
2022/11/14 05:58:48;;;;;;;94.10;42.03;;;;;;;6.73;85.74;101753.97;1694025;82;21529;-76
2022/11/14 06:01:33;;;;;;;93.97;42.93;;;;;;;6.69;85.66;101759.89;1687339;82;21523;-76
2022/11/14 06:04:18;;;;;;;89.25;40.60;;;;;;;6.67;85.78;101757.71;1686509;83;21479;-76
2022/11/14 06:07:03;;;;;;;84.32;38.78;;;;;;;6.64;85.74;101755.53;1639983;84;21078;-76
2022/11/14 06:09:48;;;;;;;80.22;36.33;;;;;;;6.64;85.71;101755.53;1689722;84;22180;-76
2022/11/14 06:12:33;;;;;;;97.00;41.85;;;;;;;6.64;85.75;101764.53;1691748;83;21023;-76
2022/11/14 06:15:18;;;;;;;86.85;38.28;;;;;;;6.64;85.73;101756.81;1689730;82;21412;-76
2022/11/14 06:18:03;;;;;;;92.85;42.23;;;;;;;6.64;85.70;101756.81;1690450;82;21076;-76
2022/11/14 06:20:48;;;;;;;93.80;42.45;;;;;;;6.64;85.73;101767.09;1693844;82;20995;-76
2022/11/14 06:23:34;;;;;;;87.30;38.50;;;;;;;6.60;85.68;101774.72;1651832;84;21594;-76
2022/11/14 06:26:26;;;;;;;97.08;41.33;;;;;;;6.59;85.72;101771.70;1688982;82;21038;-77
2022/11/14 06:29:11;;;;;;;84.22;37.05;;;;;;;6.58;85.74;101780.25;1692239;82;21456;-76
2022/11/14 06:31:56;;;;;;;87.53;35.60;;;;;;;6.54;85.69;101775.89;1692342;82;21328;-76
2022/11/14 06:34:41;;;;;;;89.92;37.38;;;;;;;6.47;85.71;101773.63;1688867;82;21051;-76
2022/11/14 06:37:26;;;;;;;93.42;39.40;;;;;;;6.43;85.71;101775.68;1688625;82;21493;-76
2022/11/14 06:40:12;;;;;;;96.87;39.83;;;;;;;6.41;85.75;101776.48;1679563;83;21361;-76
2022/11/14 06:42:57;;;;;;;89.30;39.58;;;;;;;6.38;85.86;101771.28;1700591;82;21701;-76
2022/11/14 06:45:42;;;;;;;92.08;40.67;;;;;;;6.34;85.89;101775.91;1688267;82;21040;-76
2022/11/14 06:48:29;;;;;;;94.58;39.67;;;;;;;6.34;85.88;101769.08;1687717;82;21078;-76
2022/11/14 06:51:16;;;;;;;86.95;39.30;;;;;;;6.35;85.88;101766.09;1681845;84;20944;-77
2022/11/14 06:54:01;;;;;;;95.53;38.00;;;;;;;6.37;85.90;101766.56;1698722;82;21126;-76
2022/11/14 06:56:46;;;;;;;87.67;37.58;;;;;;;6.41;85.92;101764.92;1690441;82;21038;-76
2022/11/14 06:59:31;;;;;;;94.47;39.60;;;;;;;6.44;85.95;101766.27;1693779;82;21013;-76
2022/11/14 07:02:16;;;;;;;91.85;38.15;;;;;;;6.43;85.89;101757.70;1687947;82;21059;-76
2022/11/14 07:05:01;;;;;;;97.08;39.83;;;;;;;6.46;85.94;101765.46;1684721;83;21066;-76
2022/11/14 07:07:46;;;;;;;90.57;38.30;;;;;;;6.49;85.94;101764.23;1690793;84;21591;-76
2022/11/14 07:10:31;;;;;;;93.27;36.40;;;;;;;6.52;85.90;101769.44;1690291;83;20984;-76
2022/11/14 07:13:16;;;;;;;91.15;37.13;;;;;;;6.54;85.93;101766.89;1688947;82;21100;-76
2022/11/14 07:16:02;;;;;;;83.33;36.17;;;;;;;6.53;85.86;101761.31;1689040;82;21015;-76
2022/11/14 07:18:47;;;;;;;88.17;36.70;;;;;;;6.54;85.95;101755.33;1702979;83;21674;-76
2022/11/14 07:21:34;;;;;;;90.90;37.55;;;;;;;6.58;85.96;101756.70;1723786;81;21056;-76
2022/11/14 07:24:18;;;;;;;96.72;39.48;;;;;;;6.60;85.95;101756.73;1652564;84;21147;-76
2022/11/14 07:27:07;;;;;;;88.27;37.20;;;;;;;6.60;85.90;101755.45;1645981;84;21092;-76
2022/11/14 07:29:50;;;;;;;85.05;35.52;;;;;;;6.59;85.91;101758.44;1709964;81;21494;-76
2022/11/14 07:32:36;;;;;;;92.05;37.38;;;;;;;6.61;85.94;101759.75;1709615;81;21529;-76
2022/11/14 07:35:22;;;;;;;81.30;35.63;;;;;;;6.61;85.98;101755.89;1711772;81;21506;-76
2022/11/14 07:38:06;;;;;;;80.20;33.92;;;;;;;6.60;85.92;101743.88;1717659;81;21031;-76
2022/11/14 07:41:01;;;;;;;91.72;39.60;;;;;;;6.63;86.03;101738.80;1711745;81;21097;-76
2022/11/14 07:43:45;;;;;;;92.45;39.30;;;;;;;6.62;85.94;101743.08;1712983;82;21050;-76
2022/11/14 07:46:31;;;;;;;81.00;37.28;;;;;;;6.60;85.97;101741.31;1714834;81;21556;-76
2022/11/14 07:49:16;;;;;;;86.57;35.95;;;;;;;6.59;85.95;101742.15;1711024;81;21122;-76
2022/11/14 07:52:01;;;;;;;87.78;37.08;;;;;;;6.58;85.95;101742.57;1713514;83;21835;-76
2022/11/14 07:54:46;;;;;;;88.92;36.17;;;;;;;6.62;85.99;101748.22;1708226;81;21097;-76
2022/11/14 07:57:31;;;;;;;98.50;38.13;;;;;;;6.64;86.05;101731.53;1716527;81;21582;-76
2022/11/14 08:00:17;;;;;;;86.78;35.92;;;;;;;6.70;86.12;101729.50;1707460;81;21097;-76
2022/11/14 08:03:02;;;;;;;88.80;37.63;;;;;;;6.75;86.12;101736.45;1706939;81;21086;-76
2022/11/14 08:05:47;;;;;;;95.20;40.10;;;;;;;6.77;86.05;101739.88;1698308;82;21063;-76
2022/11/14 08:08:33;;;;;;;87.15;37.03;;;;;;;6.78;86.05;101742.89;1699269;83;21043;-76
2022/11/14 08:11:46;;;;;;;81.45;38.33;;;;;;;6.82;86.06;101744.69;1708389;82;21032;-76
2022/11/14 08:14:05;;;;;;;83.05;36.77;;;;;;;6.86;86.10;101738.75;1707510;81;21049;-76
2022/11/14 08:16:50;;;;;;;95.30;39.75;;;;;;;6.88;86.08;101743.50;1705801;82;21086;-76
2022/11/14 08:19:35;;;;;;;88.47;37.53;;;;;;;6.90;86.09;101740.55;1687517;83;21570;-76
2022/11/14 08:22:20;;;;;;;93.80;38.80;;;;;;;6.96;86.12;101739.36;1696360;82;21042;-76
2022/11/14 08:25:07;;;;;;;88.87;39.13;;;;;;;7.01;86.10;101744.58;1712457;81;21042;-76
2022/11/14 08:27:53;;;;;;;94.25;39.67;;;;;;;7.02;86.11;101733.45;1699955;81;21697;-76
2022/11/14 08:30:38;;;;;;;75.67;36.75;;;;;;;7.05;86.08;101716.79;1709162;81;21099;-76
2022/11/14 08:33:23;;;;;;;78.30;37.05;;;;;;;7.08;86.09;101709.13;1713450;82;21093;-76
2022/11/14 08:36:10;;;;;;;80.87;35.43;;;;;;;7.11;86.08;101707.02;1712954;81;21522;-76
2022/11/14 08:38:55;;;;;;;80.05;36.73;;;;;;;7.18;86.17;101708.42;1715176;82;21054;-76
2022/11/14 08:41:40;;;;;;;75.37;35.13;;;;;;;7.25;86.13;101700.38;1711010;81;21526;-76
2022/11/14 08:44:25;;;;;;;84.67;37.90;;;;;;;7.33;86.19;101699.18;1710327;81;21568;-76
2022/11/14 08:47:10;;;;;;;86.67;38.02;;;;;;;7.40;86.20;101699.72;1712927;81;21026;-77
2022/11/14 08:49:55;;;;;;;86.00;37.53;;;;;;;7.43;86.03;101708.34;1703906;83;21125;-76
2022/11/14 08:52:40;;;;;;;80.00;37.20;;;;;;;7.39;85.91;101715.58;1710772;81;21046;-76
2022/11/14 08:55:25;;;;;;;77.60;36.60;;;;;;;7.37;86.03;101715.11;1715150;81;21393;-76
2022/11/14 08:58:11;;;;;;;84.67;38.08;;;;;;;7.43;86.14;101716.06;1701008;82;21038;-76
2022/11/14 09:01:03;;;;;;;91.82;39.70;;;;;;;7.45;86.08;101718.66;1713221;81;21396;-76
2022/11/14 09:03:48;;;;;;;87.15;38.10;;;;;;;7.43;86.00;101706.19;1713118;81;21467;-76
2022/11/14 09:06:33;;;;;;;82.50;37.85;;;;;;;7.44;86.09;101702.77;1710854;81;21665;-76
2022/11/14 09:09:18;;;;;;;78.67;36.30;;;;;;;7.44;86.08;101692.06;1704204;83;21086;-76
2022/11/14 09:12:04;;;;;;;84.60;38.23;;;;;;;7.49;86.13;101695.98;1715324;83;21097;-76
2022/11/14 09:14:49;;;;;;;82.62;38.38;;;;;;;7.49;86.03;101688.27;1708304;83;21852;-76
2022/11/14 09:17:34;;;;;;;79.40;37.25;;;;;;;7.49;86.10;101679.26;1672210;84;22332;-77
2022/11/14 09:20:19;;;;;;;80.15;37.03;;;;;;;7.53;86.10;101670.73;1696669;83;20979;-77
2022/11/14 09:23:04;;;;;;;79.58;36.85;;;;;;;7.53;86.05;101672.89;1690069;82;21099;-77
2022/11/14 09:25:49;;;;;;;78.75;36.25;;;;;;;7.56;86.05;101669.49;1689262;82;21095;-76
2022/11/14 09:28:36;;;;;;;79.37;36.38;;;;;;;7.56;85.97;101669.49;1686540;82;20999;-76
2022/11/14 09:31:21;;;;;;;71.28;34.23;;;;;;;7.56;86.04;101667.78;1693062;82;21040;-76
2022/11/14 09:34:06;;;;;;;81.37;34.67;;;;;;;7.57;86.07;101669.52;1695309;82;21534;-76
2022/11/14 09:36:51;;;;;;;68.33;34.18;;;;;;;7.64;86.18;101664.89;1688540;82;21019;-76
2022/11/14 09:39:39;;;;;;;79.77;36.48;;;;;;;7.70;86.17;101676.97;1689629;82;21058;-76
2022/11/14 09:42:48;;;;;;;;;;;;;;;7.68;86.01;101668.78;1693577;82;21067;-76
2022/11/14 09:45:37;;;;;;;71.05;32.65;;;;;;;7.65;85.91;101673.47;1680215;84;20174;-76
2022/11/14 09:48:28;;;;;;;72.17;34.30;;;;;;;7.68;86.08;101672.65;1686551;83;21000;-76
2022/11/14 09:51:23;;;;;;;69.55;33.18;;;;;;;7.66;85.90;101670.47;1687542;84;21481;-76
2022/11/14 09:54:22;;;;;;;75.90;35.15;;;;;;;7.61;85.82;101681.58;1687836;82;21573;-76
2022/11/14 09:57:17;;;;;;;67.45;33.30;;;;;;;7.54;85.76;101680.19;1686350;82;20908;-76
2022/11/14 10:00:10;;;;;;;66.15;33.30;;;;;;;7.45;85.71;101670.63;1692983;82;21464;-76
2022/11/14 10:03:18;;;;;;;65.70;31.23;;;;;;;7.41;85.83;101674.42;1683139;82;20940;-76
2022/11/14 10:06:29;;;;;;;65.25;32.20;;;;;;;7.39;85.91;101661.96;1687175;82;20947;-76
2022/11/14 10:09:37;;;;;;;64.10;32.23;;;;;;;7.39;85.92;101652.53;1688064;82;21449;-76
2022/11/14 10:13:07;;;;;;;63.78;33.30;;;;;;;7.41;85.92;101645.70;1686101;82;21032;-76
2022/11/14 10:16:26;;;;;;;64.30;33.75;;;;;;;7.44;85.94;101647.03;1684302;82;21519;-76
2022/11/14 10:19:19;;;;;;;70.90;33.80;;;;;;;7.42;85.81;101637.14;1691591;83;21503;-76
2022/11/14 10:22:33;;;;;;;72.10;34.75;;;;;;;7.38;85.74;101636.66;1707926;81;20951;-76
2022/11/14 10:25:47;;;;;;;59.45;30.45;;;;;;;7.37;85.78;101626.34;1700832;82;21602;-76
2022/11/14 10:29:15;;;;;;;59.77;31.30;;;;;;;7.42;85.89;101622.98;1705053;81;21054;-76
2022/11/14 10:32:31;;;;;;;58.28;28.98;;;;;;;7.47;85.82;101619.19;1708488;82;21669;-76
2022/11/14 10:35:41;;;;;;;54.20;28.07;;;;;;;7.53;85.90;101607.69;1706405;81;21166;-76
2022/11/14 10:38:34;;;;;;;61.45;30.27;;;;;;;7.59;85.76;101609.05;1700704;82;21470;-76
2022/11/14 10:41:21;;;;;;;56.77;29.02;;;;;;;7.65;85.80;101614.27;1713963;81;21035;-76
2022/11/14 10:44:15;;;;;;;56.92;28.77;;;;;;;7.70;85.82;101615.19;1701036;81;21581;-76
2022/11/14 10:47:08;;;;;;;59.67;31.45;;;;;;;7.75;85.77;101610.95;1701438;81;21062;-76
2022/11/14 10:49:58;;;;;;;50.83;27.75;;;;;;;7.77;85.66;101602.83;1702033;81;21035;-76
2022/11/14 10:52:45;;;;;;;60.03;31.52;;;;;;;7.78;85.74;101590.82;1703201;81;21582;-77
2022/11/14 10:55:29;;;;;;;;;;;;;;;7.82;85.77;101589.55;1707262;81;21083;-76
2022/11/14 10:58:15;;;;;;;60.33;31.55;;;;;;;7.84;85.64;101581.84;1706537;81;21068;-77
2022/11/14 11:01:42;;;;;;;63.05;32.60;;;;;;;7.88;85.74;101583.18;1702926;81;21479;-76
2022/11/14 11:04:30;;;;;;;55.90;30.57;;;;;;;7.94;85.77;101590.97;1704809;81;20973;-76
2022/11/14 11:13:36;;;;;;;55.38;29.90;;;;;;;8.10;85.76;101575.25;1704385;81;21022;-76
2022/11/14 11:16:24;;;;;;;58.23;30.88;;;;;;;8.14;85.70;101577.43;1705439;82;21077;-76
2022/11/14 11:19:24;;;;;;;49.53;28.07;;;;;;;8.18;85.66;101574.89;1703568;81;21038;-76
2022/11/14 11:22:36;;;;;;;54.42;28.77;;;;;;;8.19;85.70;101570.19;1671002;83;21069;-76
2022/11/14 11:25:30;;;;;;;48.58;25.90;;;;;;;8.25;85.49;101565.52;1669050;84;20930;-76
2022/11/14 11:28:21;;;;;;;44.98;26.35;;;;;;;8.27;85.60;101567.67;1677074;83;21473;-76
2022/11/14 11:31:09;;;;;;;46.90;26.30;;;;;;;8.27;85.53;101569.83;1677525;83;21589;-76
2022/11/14 11:33:54;;;;;;;53.10;27.87;;;;;;;8.24;85.38;101562.07;1663977;83;21096;-76
2022/11/14 11:36:45;;;;;;;56.88;30.95;;;;;;;8.23;85.39;101562.92;1681925;83;21120;-76
2022/11/14 11:39:34;;;;;;;56.75;29.12;;;;;;;8.26;85.45;101565.52;1653577;84;21104;-76
2022/11/14 11:42:57;;;;;;;54.70;29.32;;;;;;;8.27;85.46;101560.81;1670054;83;21647;-76
2022/11/14 11:45:46;;;;;;;52.48;28.27;;;;;;;8.33;85.50;101560.42;1664703;83;21013;-76
2022/11/14 11:48:38;;;;;;;55.12;29.45;;;;;;;8.40;85.59;101551.47;1660579;82;38200;-77
2022/11/14 11:51:25;;;;;;;48.15;27.07;;;;;;;8.45;85.52;101542.48;1687049;83;21064;-77
2022/11/14 11:54:19;;;;;;;50.90;28.27;;;;;;;8.53;85.58;101542.12;1673829;83;21052;-77
2022/11/14 11:57:09;;;;;;;52.98;28.57;;;;;;;8.58;85.49;101542.59;1689501;82;21105;-76
2022/11/14 12:00:02;;;;;;;54.20;29.15;;;;;;;8.63;85.49;101541.33;1686341;83;21057;-76
2022/11/14 12:02:51;;;;;;;54.05;29.30;;;;;;;8.70;85.51;101539.66;1688683;82;21100;-76
2022/11/14 12:05:56;;;;;;;54.53;29.60;;;;;;;8.80;85.56;101539.73;1689419;83;21560;-76
2022/11/14 12:09:01;;;;;;;51.00;27.10;;;;;;;8.90;85.51;101527.30;1676644;83;21179;-77
2022/11/14 12:12:01;;;;;;;48.90;27.13;;;;;;;8.94;85.26;101517.86;1668272;83;21080;-76
2022/11/14 12:15:17;;;;;;;49.63;27.98;;;;;;;8.90;85.08;101516.98;1678772;83;21483;-76
2022/11/14 12:18:42;;;;;;;46.48;26.48;;;;;;;8.86;85.21;101514.38;1675573;83;22036;-76
2022/11/14 12:22:09;;;;;;;44.38;24.95;;;;;;;8.85;85.23;101507.06;1697001;83;21084;-76
2022/11/14 12:25:02;;;;;;;52.00;28.42;;;;;;;8.84;85.16;101510.92;1702538;80;21476;-76
2022/11/14 12:28:19;;;;;;;51.88;27.67;;;;;;;8.80;85.09;101509.21;1699091;82;21460;-76
2022/11/14 12:31:09;;;;;;;48.10;27.45;;;;;;;8.73;84.98;101505.73;1635683;85;21138;-83
2022/11/14 12:34:02;;;;;;;50.55;28.50;;;;;;;8.73;85.00;101510.89;1698712;81;21000;-80
2022/11/14 12:36:47;;;;;;;50.28;28.77;;;;;;;8.71;85.01;101504.86;1704778;81;21094;-80
2022/11/14 12:39:32;;;;;;;52.27;27.82;;;;;;;8.75;85.11;101501.87;1709838;81;21063;-77
2022/11/14 12:42:20;;;;;;;60.43;32.05;;;;;;;8.80;85.15;101498.47;1709624;82;21055;-78
2022/11/14 12:45:33;;;;;;;55.40;31.55;;;;;;;8.85;85.20;101494.16;1702630;82;21650;-77
2022/11/14 12:48:31;;;;;;;58.23;31.90;;;;;;;8.88;85.09;101489.45;1709725;82;21070;-84
2022/11/14 12:51:36;;;;;;;52.88;30.50;;;;;;;8.90;84.98;101485.16;1710624;82;21007;-84
2022/11/14 12:54:45;;;;;;;50.15;29.25;;;;;;;8.88;84.99;101482.58;1708034;82;21541;-84
2022/11/14 12:57:47;;;;;;;50.55;27.80;;;;;;;8.86;84.87;101473.11;1702520;82;21078;-84
2022/11/14 13:00:35;;;;;;;51.45;29.15;;;;;;;8.85;84.91;101473.95;1711289;81;21054;-85
2022/11/14 13:03:42;;;;;;;52.45;30.27;;;;;;;8.86;84.89;101473.11;1665680;85;21160;-84